createdAt,value
2022-12-03T00:00:40.804Z,1.82
2022-12-03T00:03:07.619Z,2.33
2022-12-03T00:05:34.498Z,2.39
2022-12-03T00:08:03.036Z,1.79
2022-12-03T00:10:29.816Z,1.24
2022-12-03T00:12:56.497Z,1.57
2022-12-03T00:15:23.231Z,2.21
2022-12-03T00:17:49.950Z,2.28
2022-12-03T00:20:19.993Z,1.40
2022-12-03T00:22:46.733Z,2.36
2022-12-03T00:25:16.129Z,2.36
2022-12-03T00:27:43.051Z,2.18
2022-12-03T00:30:14.193Z,1.67
2022-12-03T00:32:41.558Z,2.35
2022-12-03T00:35:09.087Z,2.32
2022-12-03T00:37:35.943Z,2.45
2022-12-03T00:40:04.823Z,2.43
2022-12-03T00:42:31.574Z,1.70
2022-12-03T00:44:58.369Z,2.41
2022-12-03T00:47:25.143Z,1.91
2022-12-03T00:49:51.841Z,2.38
2022-12-03T00:52:18.525Z,2.37
2022-12-03T00:54:45.405Z,2.01
2022-12-03T00:57:12.169Z,2.23
2022-12-03T00:59:40.737Z,0.64
2022-12-03T01:02:07.480Z,1.60
2022-12-03T01:04:34.228Z,2.05
2022-12-03T01:07:01.120Z,2.55
2022-12-03T01:09:27.861Z,2.68
2022-12-03T01:11:54.547Z,2.33
2022-12-03T01:14:21.201Z,2.42
2022-12-03T01:16:48.216Z,2.55
2022-12-03T01:19:16.465Z,2.12
2022-12-03T01:21:44.901Z,2.72
2022-12-03T01:24:12.300Z,2.73
2022-12-03T01:26:39.180Z,2.65
2022-12-03T01:29:06.290Z,2.83
2022-12-03T01:31:51.579Z,2.80
2022-12-03T01:34:18.405Z,2.36
2022-12-03T01:36:45.086Z,2.71
2022-12-03T01:39:11.857Z,2.79
2022-12-03T01:41:39.186Z,2.39
2022-12-03T01:44:18.229Z,1.91
2022-12-03T01:46:46.643Z,2.12
2022-12-03T01:49:20.442Z,2.66
2022-12-03T01:51:49.096Z,2.75
2022-12-03T01:54:22.282Z,2.80
2022-12-03T01:56:49.254Z,1.76
2022-12-03T01:59:21.822Z,2.80
2022-12-03T02:01:49.279Z,2.79
2022-12-03T02:04:17.199Z,2.56
2022-12-03T02:06:44.857Z,2.79
2022-12-03T02:09:13.483Z,2.69
2022-12-03T02:11:47.044Z,2.74
2022-12-03T02:14:18.253Z,2.76
2022-12-03T02:16:45.976Z,2.89
2022-12-03T02:19:24.788Z,2.53
2022-12-03T02:22:15.317Z,2.62
2022-12-03T02:25:11.138Z,1.37
2022-12-03T02:27:38.273Z,1.80
2022-12-03T02:30:06.873Z,2.66
2022-12-03T02:32:33.697Z,2.18
2022-12-03T02:35:00.376Z,1.94
2022-12-03T02:37:30.989Z,1.48
2022-12-03T02:40:01.498Z,2.23
2022-12-03T02:42:35.636Z,2.29
2022-12-03T02:45:05.904Z,2.45
2022-12-03T02:47:36.502Z,1.62
2022-12-03T02:50:03.978Z,2.45
2022-12-03T02:52:31.034Z,2.49
2022-12-03T02:54:58.347Z,1.58
2022-12-03T02:57:25.050Z,2.57
2022-12-03T02:59:52.040Z,2.35
2022-12-03T03:02:19.194Z,2.59
2022-12-03T03:04:46.199Z,2.32
2022-12-03T03:07:13.972Z,2.73
2022-12-03T03:09:41.602Z,2.52
2022-12-03T03:12:10.084Z,1.68
2022-12-03T03:14:37.045Z,1.77
2022-12-03T03:17:04.501Z,1.70
2022-12-03T03:19:31.190Z,1.88
2022-12-03T03:21:58.134Z,2.48
2022-12-03T03:24:25.780Z,2.73
2022-12-03T03:26:53.032Z,2.36
2022-12-03T03:29:20.030Z,2.00
2022-12-03T03:31:47.460Z,1.72
2022-12-03T03:34:15.262Z,2.34
2022-12-03T03:36:42.370Z,2.69
2022-12-03T03:39:09.228Z,2.78
2022-12-03T03:41:36.650Z,2.68
2022-12-03T03:44:06.408Z,2.76
2022-12-03T03:46:34.071Z,2.70
2022-12-03T03:49:02.382Z,1.95
2022-12-03T03:51:29.485Z,2.01
2022-12-03T03:53:56.560Z,2.71
2022-12-03T03:56:23.377Z,2.21
2022-12-03T03:58:50.105Z,2.94
2022-12-03T04:01:17.445Z,2.92
2022-12-03T04:03:45.118Z,2.90
2022-12-03T04:06:11.971Z,2.69
2022-12-03T04:08:38.685Z,2.32
2022-12-03T04:11:26.702Z,2.22
2022-12-03T04:13:53.429Z,2.73
2022-12-03T04:16:20.138Z,1.14
2022-12-03T04:18:47.043Z,2.57
2022-12-03T04:21:42.721Z,2.69
2022-12-03T04:24:11.251Z,2.76
2022-12-03T04:26:56.990Z,2.57
2022-12-03T04:29:23.917Z,2.41
2022-12-03T04:32:16.887Z,2.87
2022-12-03T04:35:02.141Z,2.83
2022-12-03T04:37:28.809Z,2.25
2022-12-03T04:39:55.534Z,2.69
2022-12-03T04:42:22.322Z,2.15
2022-12-03T04:44:48.952Z,2.73
2022-12-03T04:47:20.972Z,2.50
2022-12-03T04:49:49.835Z,2.53
2022-12-03T04:52:18.239Z,2.45
2022-12-03T04:54:45.508Z,2.12
2022-12-03T04:57:12.473Z,2.46
2022-12-03T04:59:39.701Z,2.32
2022-12-03T05:02:07.095Z,2.18
2022-12-03T05:04:34.177Z,1.73
2022-12-03T05:07:00.965Z,1.34
2022-12-03T05:09:27.734Z,1.89
2022-12-03T05:11:54.450Z,1.08
2022-12-03T05:14:21.142Z,1.76
2022-12-03T05:16:47.867Z,0.89
2022-12-03T05:19:14.560Z,1.76
2022-12-03T05:21:41.199Z,1.76
2022-12-03T05:24:08.082Z,1.50
2022-12-03T05:26:34.798Z,1.68
2022-12-03T05:29:01.538Z,1.99
2022-12-03T05:31:28.276Z,2.08
2022-12-03T05:33:55.309Z,1.37
2022-12-03T05:36:22.073Z,1.54
2022-12-03T05:38:48.850Z,1.69
2022-12-03T05:41:34.059Z,1.35
2022-12-03T05:44:00.782Z,2.19
2022-12-03T05:46:27.649Z,1.70
2022-12-03T05:48:55.093Z,0.31
2022-12-03T05:51:21.754Z,2.09
2022-12-03T05:53:48.499Z,2.11
2022-12-03T05:56:15.175Z,0.87
2022-12-03T05:58:41.910Z,1.82
2022-12-03T06:01:08.618Z,2.03
2022-12-03T06:03:35.515Z,1.05
2022-12-03T06:06:02.304Z,1.90
2022-12-03T06:08:29.096Z,1.92
2022-12-03T06:10:55.768Z,1.33
2022-12-03T06:13:22.466Z,1.29
2022-12-03T06:15:49.144Z,1.75
2022-12-03T06:18:15.952Z,1.09
2022-12-03T06:20:42.566Z,1.52
2022-12-03T06:23:09.258Z,1.52
2022-12-03T06:25:35.966Z,1.51
2022-12-03T06:28:02.651Z,1.34
2022-12-03T06:30:29.375Z,1.74
2022-12-03T06:32:57.773Z,1.35
2022-12-03T06:35:24.444Z,1.68
2022-12-03T06:37:51.153Z,0.70
2022-12-03T06:40:18.013Z,0.45
2022-12-03T06:42:44.796Z,0.93
2022-12-03T06:45:12.038Z,-0.61
2022-12-03T06:47:38.850Z,1.81
2022-12-03T06:50:07.553Z,1.61
2022-12-03T06:52:35.238Z,0.75
2022-12-03T06:55:01.889Z,1.54
2022-12-03T06:57:28.569Z,0.99
2022-12-03T06:59:55.683Z,1.49
2022-12-03T07:02:22.563Z,0.81
2022-12-03T07:04:49.226Z,1.71
2022-12-03T07:07:15.896Z,0.83
2022-12-03T07:09:42.541Z,1.71
2022-12-03T07:12:09.292Z,0.99
2022-12-03T07:14:35.968Z,1.65
2022-12-03T07:17:02.728Z,0.82
2022-12-03T07:19:32.792Z,0.72
2022-12-03T07:22:00.231Z,1.63
2022-12-03T07:24:27.275Z,1.63
2022-12-03T07:26:54.021Z,1.16
2022-12-03T07:29:20.768Z,1.63
2022-12-03T07:31:48.236Z,1.61
2022-12-03T07:34:15.352Z,1.02
2022-12-03T07:36:45.173Z,1.66
2022-12-03T07:39:21.248Z,-0.05
2022-12-03T07:41:48.008Z,0.31
2022-12-03T07:44:15.019Z,1.27
2022-12-03T07:46:42.457Z,1.73
2022-12-03T07:49:09.732Z,1.40
2022-12-03T07:51:36.470Z,1.60
2022-12-03T07:54:03.234Z,1.63
2022-12-03T07:56:30.188Z,1.34
2022-12-03T07:58:56.916Z,1.17
2022-12-03T08:01:23.717Z,1.60
2022-12-03T08:03:50.505Z,1.76
2022-12-03T08:06:17.223Z,1.12
2022-12-03T08:08:43.972Z,1.68
2022-12-03T08:11:15.022Z,1.54
2022-12-03T08:13:41.716Z,-0.91
2022-12-03T08:16:17.796Z,1.62
2022-12-03T08:18:45.918Z,1.49
2022-12-03T08:21:14.793Z,0.83
2022-12-03T08:23:41.681Z,1.54
2022-12-03T08:26:20.194Z,1.46
2022-12-03T08:28:46.935Z,0.22
2022-12-03T08:31:25.766Z,0.62
2022-12-03T08:34:22.440Z,1.60
2022-12-03T08:36:58.791Z,0.96
2022-12-03T08:39:29.509Z,1.53
2022-12-03T08:42:31.461Z,1.63
2022-12-03T08:45:27.932Z,1.57
2022-12-03T08:48:00.116Z,1.17
2022-12-03T08:50:38.600Z,1.59
2022-12-03T08:53:14.155Z,1.67
2022-12-03T08:56:06.180Z,1.42
2022-12-03T08:58:46.881Z,1.50
2022-12-03T09:01:13.689Z,1.60
2022-12-03T09:03:52.677Z,0.93
2022-12-03T09:06:19.479Z,0.88
2022-12-03T09:08:46.160Z,1.03
2022-12-03T09:11:13.670Z,0.41
2022-12-03T09:13:40.423Z,1.33
2022-12-03T09:16:07.557Z,0.36
2022-12-03T09:18:34.423Z,1.39
2022-12-03T09:21:01.408Z,0.50
2022-12-03T09:23:28.247Z,1.38
2022-12-03T09:25:55.158Z,0.56
2022-12-03T09:28:22.209Z,1.29
2022-12-03T09:30:48.987Z,0.57
2022-12-03T09:33:15.679Z,1.40
2022-12-03T09:35:42.369Z,0.78
2022-12-03T09:38:09.007Z,0.95
2022-12-03T09:40:35.725Z,0.31
2022-12-03T09:43:03.518Z,1.46
2022-12-03T09:45:30.250Z,0.63
2022-12-03T09:47:57.327Z,0.93
2022-12-03T09:50:26.781Z,1.38
2022-12-03T09:52:55.123Z,1.42
2022-12-03T09:55:25.457Z,1.35
2022-12-03T09:57:56.968Z,1.45
2022-12-03T10:00:27.051Z,1.56
2022-12-03T10:02:57.458Z,0.72
2022-12-03T10:05:24.938Z,1.26
2022-12-03T10:07:52.788Z,1.49
2022-12-03T10:10:25.172Z,1.42
2022-12-03T10:12:53.015Z,1.34
2022-12-03T10:15:22.790Z,1.29
2022-12-03T10:17:52.185Z,1.25
2022-12-03T10:20:24.501Z,0.27
2022-12-03T10:22:53.536Z,0.23
2022-12-03T10:25:23.487Z,1.33
2022-12-03T10:28:02.146Z,0.18
2022-12-03T10:30:31.580Z,0.64
2022-12-03T10:33:02.538Z,1.25
2022-12-03T10:35:45.762Z,-0.20
2022-12-03T10:38:27.831Z,1.39
2022-12-03T10:41:00.003Z,1.14
2022-12-03T10:43:29.828Z,0.55
2022-12-03T10:46:03.483Z,1.29
2022-12-03T10:48:32.894Z,1.15
2022-12-03T10:51:33.656Z,1.44
2022-12-03T10:54:04.969Z,1.38
2022-12-03T10:56:31.767Z,1.58
2022-12-03T10:58:58.529Z,1.48
2022-12-03T11:01:26.585Z,1.32
2022-12-03T11:04:04.684Z,1.47
2022-12-03T11:06:34.695Z,0.99
2022-12-03T11:09:08.859Z,-0.39
2022-12-03T11:11:36.228Z,0.89
2022-12-03T11:14:04.931Z,1.20
2022-12-03T11:16:40.466Z,1.61
2022-12-03T11:19:13.317Z,1.70
2022-12-03T11:22:05.108Z,1.70
2022-12-03T11:24:36.878Z,1.74
2022-12-03T11:27:03.587Z,1.71
2022-12-03T11:29:52.526Z,1.64
2022-12-03T11:32:54.490Z,1.55
2022-12-03T11:35:24.019Z,1.46
2022-12-03T11:37:51.102Z,1.14
2022-12-03T11:40:17.744Z,1.42
2022-12-03T11:42:46.737Z,0.27
2022-12-03T11:45:28.737Z,1.53
2022-12-03T11:47:58.495Z,1.49
2022-12-03T11:50:38.978Z,1.51
2022-12-03T11:53:21.367Z,0.45
2022-12-03T11:56:04.131Z,1.51
2022-12-03T11:58:32.905Z,1.59
2022-12-03T12:01:03.332Z,1.48
2022-12-03T12:03:57.544Z,1.20
2022-12-03T12:06:24.350Z,0.73
2022-12-03T12:08:50.965Z,1.50
2022-12-03T12:11:30.360Z,1.12
2022-12-03T12:14:08.426Z,0.83
2022-12-03T12:16:46.243Z,1.23
2022-12-03T12:19:28.154Z,1.39
2022-12-03T12:21:55.737Z,0.84
2022-12-03T12:24:32.799Z,1.57
2022-12-03T12:27:11.697Z,1.61
2022-12-03T12:29:40.340Z,0.57
2022-12-03T12:32:10.193Z,1.49
2022-12-03T12:34:41.637Z,0.64
2022-12-03T12:37:13.364Z,1.46
2022-12-03T12:39:40.240Z,0.65
2022-12-03T12:42:27.354Z,1.14
2022-12-03T12:44:58.231Z,-0.33
2022-12-03T12:47:25.171Z,1.34
2022-12-03T12:49:52.114Z,-0.14
2022-12-03T12:52:18.980Z,1.26
2022-12-03T12:54:45.631Z,0.90
2022-12-03T12:57:16.086Z,1.25
2022-12-03T12:59:42.860Z,0.59
2022-12-03T13:02:41.051Z,0.04
2022-12-03T13:05:11.744Z,1.31
2022-12-03T13:07:40.042Z,1.24
2022-12-03T13:10:34.812Z,1.41
2022-12-03T13:13:20.532Z,0.52
2022-12-03T13:15:52.075Z,0.75
2022-12-03T13:18:37.026Z,1.36
2022-12-03T13:21:22.332Z,0.46
2022-12-03T13:23:57.198Z,1.04
2022-12-03T13:26:34.482Z,1.34
2022-12-03T13:29:18.029Z,0.57
2022-12-03T13:32:03.001Z,0.57
2022-12-03T13:34:34.746Z,1.17
2022-12-03T13:37:02.068Z,0.93
2022-12-03T13:39:35.381Z,0.60
2022-12-03T13:42:26.730Z,1.31
2022-12-03T13:44:53.502Z,0.87
2022-12-03T13:47:22.172Z,0.02
2022-12-03T13:50:03.757Z,0.85
2022-12-03T13:52:32.733Z,1.25
2022-12-03T13:55:03.436Z,-0.20
2022-12-03T13:57:30.200Z,0.44
2022-12-03T13:59:57.165Z,0.39
2022-12-03T14:02:24.298Z,0.48
2022-12-03T14:04:56.809Z,1.09
2022-12-03T14:07:26.874Z,-0.07
2022-12-03T14:09:53.945Z,0.31
2022-12-03T14:12:26.598Z,0.98
2022-12-03T14:14:54.153Z,0.33
2022-12-03T14:17:20.940Z,1.02
2022-12-03T14:19:47.779Z,0.49
2022-12-03T14:22:14.480Z,1.06
2022-12-03T14:24:41.445Z,1.15
2022-12-03T14:27:08.104Z,1.32
2022-12-03T14:29:34.854Z,0.49
2022-12-03T14:32:01.819Z,0.20
2022-12-03T14:34:28.678Z,1.27
2022-12-03T14:36:55.385Z,1.11
2022-12-03T14:39:22.125Z,1.38
2022-12-03T14:42:07.624Z,0.25
2022-12-03T14:44:34.459Z,0.59
2022-12-03T14:47:01.208Z,0.66
2022-12-03T14:49:28.142Z,-2.13
2022-12-03T14:51:55.036Z,0.80
2022-12-03T14:54:22.283Z,0.55
2022-12-03T14:56:49.027Z,0.85
2022-12-03T14:59:15.798Z,-0.03
2022-12-03T15:01:42.918Z,0.77
2022-12-03T15:04:09.800Z,-0.23
2022-12-03T15:06:36.561Z,-0.28
2022-12-03T15:09:05.168Z,-0.06
2022-12-03T15:11:32.335Z,0.00
2022-12-03T15:13:59.263Z,-0.13
2022-12-03T15:16:27.984Z,0.60
2022-12-03T15:18:55.027Z,-0.21
2022-12-03T15:21:21.767Z,-0.51
2022-12-03T15:23:49.199Z,0.16
2022-12-03T15:26:15.924Z,0.86
2022-12-03T15:28:47.931Z,0.13
2022-12-03T15:31:15.305Z,0.72
2022-12-03T15:33:42.261Z,0.77
2022-12-03T15:36:09.719Z,0.91
2022-12-03T15:38:36.963Z,0.80
2022-12-03T15:41:21.156Z,-0.21
2022-12-03T15:43:53.017Z,-0.23
2022-12-03T15:46:20.766Z,0.24
2022-12-03T15:48:48.481Z,1.02
2022-12-03T15:51:15.432Z,1.04
2022-12-03T15:53:42.508Z,0.96
2022-12-03T15:56:09.539Z,0.32
2022-12-03T15:58:36.226Z,0.43
2022-12-03T16:01:03.031Z,1.06
2022-12-03T16:03:29.847Z,0.27
2022-12-03T16:05:56.737Z,0.75
2022-12-03T16:08:25.863Z,0.57
2022-12-03T16:10:53.173Z,0.11
2022-12-03T16:13:22.380Z,-0.56
2022-12-03T16:15:49.551Z,1.15
2022-12-03T16:18:16.493Z,0.08
2022-12-03T16:20:43.832Z,1.03
2022-12-03T16:23:15.126Z,0.05
2022-12-03T16:25:41.997Z,-0.20
2022-12-03T16:28:09.051Z,0.77
2022-12-03T16:30:36.470Z,1.13
2022-12-03T16:33:03.212Z,0.50
2022-12-03T16:35:33.995Z,0.90
2022-12-03T16:38:00.824Z,1.13
2022-12-03T16:40:27.493Z,0.42
2022-12-03T16:42:56.385Z,1.09
2022-12-03T16:46:00.986Z,0.02
2022-12-03T16:48:30.245Z,0.69
2022-12-03T16:50:57.037Z,0.31
2022-12-03T16:53:23.768Z,1.17
2022-12-03T16:55:50.508Z,-0.59
2022-12-03T16:58:21.174Z,1.23
2022-12-03T17:00:49.049Z,1.05
2022-12-03T17:03:17.865Z,0.87
2022-12-03T17:05:45.393Z,1.14
2022-12-03T17:08:13.096Z,0.74
2022-12-03T17:10:40.111Z,0.44
2022-12-03T17:13:09.816Z,0.09
2022-12-03T17:15:37.275Z,-0.07
2022-12-03T17:18:04.307Z,0.91
2022-12-03T17:20:31.859Z,1.20
2022-12-03T17:22:59.650Z,0.57
2022-12-03T17:25:27.452Z,0.32
2022-12-03T17:27:54.580Z,1.08
2022-12-03T17:30:21.688Z,0.18
2022-12-03T17:32:50.411Z,0.45
2022-12-03T17:35:18.379Z,0.10
2022-12-03T17:37:45.400Z,0.95
2022-12-03T17:40:13.883Z,0.08
2022-12-03T17:42:40.895Z,0.93
2022-12-03T17:45:08.213Z,0.75
2022-12-03T17:47:34.860Z,0.37
2022-12-03T17:50:01.784Z,0.26
2022-12-03T17:52:28.455Z,-0.04
2022-12-03T17:55:10.833Z,0.42
2022-12-03T17:57:39.185Z,-0.84
2022-12-03T18:00:06.815Z,0.66
2022-12-03T18:02:39.316Z,0.06
2022-12-03T18:05:06.249Z,0.82
2022-12-03T18:07:33.194Z,0.71
2022-12-03T18:09:59.977Z,-0.33
2022-12-03T18:12:26.777Z,0.28
2022-12-03T18:14:53.551Z,0.26
2022-12-03T18:17:20.322Z,-0.03
2022-12-03T18:19:47.223Z,0.11
2022-12-03T18:22:14.306Z,-0.08
2022-12-03T18:24:41.148Z,-0.07
2022-12-03T18:27:11.300Z,-0.15
2022-12-03T18:29:42.608Z,0.96
2022-12-03T18:32:27.161Z,0.91
2022-12-03T18:34:55.298Z,0.44
2022-12-03T18:37:25.557Z,0.26
2022-12-03T18:39:52.573Z,0.42
2022-12-03T18:42:21.552Z,-0.69
2022-12-03T18:44:50.794Z,0.51
2022-12-03T18:47:20.389Z,0.67
2022-12-03T18:49:47.543Z,-0.84
2022-12-03T18:52:16.584Z,0.06
2022-12-03T18:54:43.690Z,0.75
2022-12-03T18:57:10.505Z,0.19
2022-12-03T18:59:38.194Z,0.88
2022-12-03T19:02:05.777Z,-0.11
2022-12-03T19:04:35.677Z,-0.23
2022-12-03T19:07:03.752Z,0.83
2022-12-03T19:09:30.688Z,0.40
2022-12-03T19:11:57.704Z,-0.03
2022-12-03T19:14:24.440Z,0.76
2022-12-03T19:16:52.069Z,0.00
2022-12-03T19:19:19.098Z,-0.49
2022-12-03T19:21:45.757Z,0.71
2022-12-03T19:24:28.041Z,-0.08
2022-12-03T19:26:55.529Z,0.73
2022-12-03T19:29:23.299Z,-0.12
2022-12-03T19:31:51.219Z,0.64
2022-12-03T19:34:18.159Z,0.24
2022-12-03T19:36:45.205Z,0.54
2022-12-03T19:39:11.935Z,-1.18
2022-12-03T19:41:39.380Z,0.56
2022-12-03T19:44:10.738Z,-0.51
2022-12-03T19:46:37.832Z,0.75
2022-12-03T19:49:04.887Z,0.20
2022-12-03T19:51:35.163Z,0.01
2022-12-03T19:54:04.731Z,-0.99
2022-12-03T19:56:31.541Z,-0.03
2022-12-03T19:58:58.435Z,-1.24
2022-12-03T20:01:28.293Z,0.21
2022-12-03T20:03:57.315Z,0.78
2022-12-03T20:06:27.847Z,0.57
2022-12-03T20:09:04.743Z,0.44
2022-12-03T20:11:33.087Z,-1.55
2022-12-03T20:14:02.843Z,0.44
2022-12-03T20:16:30.019Z,0.66
2022-12-03T20:18:59.404Z,-0.98
2022-12-03T20:21:28.473Z,0.08
2022-12-03T20:23:55.237Z,0.06
2022-12-03T20:26:23.041Z,0.31
2022-12-03T20:28:50.260Z,-0.47
2022-12-03T20:31:19.794Z,-0.09
2022-12-03T20:33:49.836Z,-1.40
2022-12-03T20:36:19.109Z,-0.87
2022-12-03T20:38:45.956Z,-0.35
2022-12-03T20:41:18.772Z,0.38
2022-12-03T20:43:45.761Z,0.13
2022-12-03T20:46:18.653Z,-0.42
2022-12-03T20:48:45.806Z,0.27
2022-12-03T20:51:15.564Z,0.85
2022-12-03T20:53:42.973Z,0.21
2022-12-03T20:56:10.270Z,0.46
2022-12-03T20:58:37.115Z,0.49
2022-12-03T21:01:15.324Z,0.57
2022-12-03T21:03:43.504Z,0.22
2022-12-03T21:06:11.552Z,0.16
2022-12-03T21:08:42.166Z,-0.82
2022-12-03T21:11:15.298Z,0.50
2022-12-03T21:13:43.950Z,0.83
2022-12-03T21:16:16.844Z,0.72
2022-12-03T21:18:44.533Z,0.70
2022-12-03T21:21:12.955Z,0.79
2022-12-03T21:23:41.065Z,0.91
2022-12-03T21:26:10.880Z,0.77
2022-12-03T21:28:39.706Z,0.55
2022-12-03T21:31:10.151Z,0.20
2022-12-03T21:33:37.508Z,0.18
2022-12-03T21:36:05.456Z,0.98
2022-12-03T21:38:33.313Z,-1.19
2022-12-03T21:41:01.214Z,0.91
2022-12-03T21:43:30.096Z,0.94
2022-12-03T21:45:56.868Z,0.03
2022-12-03T21:48:23.757Z,0.96
2022-12-03T21:51:01.588Z,-0.15
2022-12-03T21:53:28.578Z,0.64
2022-12-03T21:55:55.518Z,-0.58
2022-12-03T21:58:22.211Z,0.75
2022-12-03T22:00:48.880Z,-0.47
2022-12-03T22:03:15.739Z,1.20
2022-12-03T22:05:42.729Z,1.18
2022-12-03T22:08:09.753Z,0.04
2022-12-03T22:10:36.898Z,0.12
2022-12-03T22:13:03.667Z,1.28
2022-12-03T22:15:30.474Z,-0.06
2022-12-03T22:17:57.147Z,0.05
2022-12-03T22:20:23.829Z,1.00
2022-12-03T22:22:50.638Z,0.77
2022-12-03T22:25:17.400Z,1.07
2022-12-03T22:27:44.067Z,-0.35
2022-12-03T22:30:10.977Z,1.16
2022-12-03T22:32:37.754Z,1.19
2022-12-03T22:35:04.853Z,0.68
2022-12-03T22:37:32.767Z,-0.03
2022-12-03T22:39:59.597Z,0.59
2022-12-03T22:42:26.334Z,-0.58
2022-12-03T22:44:53.050Z,0.77
2022-12-03T22:47:19.923Z,-0.47
2022-12-03T22:49:46.610Z,0.13
2022-12-03T22:52:13.413Z,0.78
2022-12-03T22:54:40.072Z,-0.41
2022-12-03T22:57:06.911Z,1.02
2022-12-03T22:59:33.590Z,0.20
2022-12-03T23:02:01.255Z,0.31
2022-12-03T23:04:27.976Z,0.18
2022-12-03T23:06:54.882Z,-0.54
2022-12-03T23:09:21.638Z,-1.92
2022-12-03T23:11:48.631Z,0.23
2022-12-03T23:14:15.337Z,0.33
2022-12-03T23:16:42.109Z,-1.12
2022-12-03T23:19:08.838Z,0.43
2022-12-03T23:21:35.799Z,-1.90
2022-12-03T23:24:05.310Z,0.93
2022-12-03T23:26:35.876Z,-0.03
2022-12-03T23:29:05.173Z,0.49
2022-12-03T23:31:33.312Z,0.72
2022-12-03T23:34:00.671Z,0.07
2022-12-03T23:36:30.224Z,0.01
2022-12-03T23:38:57.169Z,-0.03
2022-12-03T23:41:24.889Z,0.35
2022-12-03T23:43:51.863Z,-2.01
2022-12-03T23:46:22.111Z,0.59
2022-12-03T23:48:49.514Z,0.37
2022-12-03T23:51:19.188Z,0.83
2022-12-03T23:53:46.134Z,-0.09
2022-12-03T23:56:15.702Z,-0.51
2022-12-03T23:58:43.186Z,0.47
